Time;durP1;ratioP1;P1;durP2;ratioP2;P2;SDS_P1;SDS_P2;PMS_P1;PMS_P2;Temp;Humidity;BMP_temperature;BMP_pressure;BME280_temperature;BME280_humidity;BME280_pressure;Samples;Min_cycle;Max_cycle;Signal;HPM_P1;HPM_P2
2022/02/24 00:00:35;;;;;;;12.73;4.40;;;7.80;99.90;;;;;;5044824;28;20040;-59
2022/02/24 00:03:01;;;;;;;19.17;5.45;;;7.80;99.90;;;;;;5041393;28;20044;-59
2022/02/24 00:05:28;;;;;;;14.43;5.53;;;7.90;99.90;;;;;;5040840;28;20036;-59
2022/02/24 00:07:54;;;;;;;17.20;4.88;;;7.90;99.90;;;;;;5041802;28;20488;-59
2022/02/24 00:10:20;;;;;;;14.57;4.57;;;7.80;99.90;;;;;;5041149;28;20045;-58
2022/02/24 00:12:47;;;;;;;14.90;5.18;;;7.80;99.90;;;;;;5040733;28;20083;-59
2022/02/24 00:15:13;;;;;;;11.82;4.20;;;7.90;99.90;;;;;;5040380;28;20114;-59
2022/02/24 00:17:40;;;;;;;15.43;4.53;;;7.80;99.90;;;;;;5042079;28;20694;-59
2022/02/24 00:20:08;;;;;;;17.23;4.85;;;7.90;99.90;;;;;;5041864;28;22438;-59
2022/02/24 00:22:35;;;;;;;19.88;4.70;;;7.90;99.90;;;;;;5024786;28;20053;-58
2022/02/24 00:25:03;;;;;;;14.68;4.28;;;7.80;99.90;;;;;;5023061;28;20041;-59
2022/02/24 00:27:29;;;;;;;12.48;4.65;;;7.70;99.90;;;;;;5022843;28;20530;-58
2022/02/24 00:29:59;;;;;;;11.52;4.57;;;7.70;99.90;;;;;;5041608;28;20128;-59
2022/02/24 00:32:25;;;;;;;10.38;3.90;;;7.70;99.90;;;;;;5041806;28;20048;-58
2022/02/24 00:34:51;;;;;;;11.73;4.20;;;7.70;99.90;;;;;;5041794;28;20037;-61
2022/02/24 00:37:17;;;;;;;12.25;3.97;;;7.70;99.90;;;;;;5022911;28;20503;-62
2022/02/24 00:39:44;;;;;;;14.68;3.67;;;7.70;99.90;;;;;;5037691;28;20056;-61
2022/02/24 00:42:10;;;;;;;11.60;4.10;;;7.70;99.90;;;;;;5040321;28;20136;-61
2022/02/24 00:44:37;;;;;;;15.60;4.47;;;7.70;99.90;;;;;;5038598;28;20040;-62
2022/02/24 00:47:03;;;;;;;11.48;3.58;;;7.70;99.90;;;;;;5039134;28;20458;-63
2022/02/24 00:49:29;;;;;;;14.50;4.35;;;7.70;99.90;;;;;;5041596;28;20507;-61
2022/02/24 00:51:55;;;;;;;12.40;4.13;;;7.70;99.90;;;;;;5043835;28;20052;-61
2022/02/24 00:54:21;;;;;;;12.15;4.18;;;7.70;99.90;;;;;;5039331;28;20049;-61
2022/02/24 00:56:47;;;;;;;15.55;4.57;;;7.70;99.90;;;;;;5041777;28;20076;-61
2022/02/24 00:59:13;;;;;;;17.13;4.13;;;7.70;99.90;;;;;;5040718;28;20045;-61
2022/02/24 01:01:40;;;;;;;13.90;4.05;;;7.70;99.90;;;;;;5038500;28;20076;-61
2022/02/24 01:04:06;;;;;;;10.98;3.50;;;7.70;99.90;;;;;;5037875;28;20558;-61
2022/02/24 01:06:32;;;;;;;10.63;3.45;;;7.60;99.90;;;;;;5037742;28;20504;-61
2022/02/24 01:08:58;;;;;;;12.07;4.53;;;7.70;99.90;;;;;;5024964;28;20045;-61
2022/02/24 01:11:24;;;;;;;10.75;3.70;;;7.70;99.90;;;;;;5040938;28;20428;-61
2022/02/24 01:13:50;;;;;;;13.30;3.35;;;7.60;99.90;;;;;;5040981;28;20091;-61
2022/02/24 01:16:17;;;;;;;11.80;3.65;;;7.60;99.90;;;;;;5040483;28;20049;-61
2022/02/24 01:18:43;;;;;;;13.80;3.97;;;7.60;99.90;;;;;;5036165;28;20044;-61
2022/02/24 01:21:09;;;;;;;13.68;3.42;;;7.60;99.90;;;;;;5039859;28;20508;-58
2022/02/24 01:23:35;;;;;;;11.82;3.30;;;7.60;99.90;;;;;;5038416;28;20373;-59
2022/02/24 01:26:01;;;;;;;12.13;3.25;;;7.50;99.90;;;;;;5022311;28;20048;-61
2022/02/24 01:28:27;;;;;;;14.68;4.13;;;7.60;99.90;;;;;;5040092;28;20043;-61
2022/02/24 01:30:53;;;;;;;14.25;4.05;;;7.60;99.90;;;;;;5035507;28;20407;-62
2022/02/24 01:33:20;;;;;;;13.90;3.40;;;7.50;99.90;;;;;;5043694;28;20118;-61
2022/02/24 01:35:46;;;;;;;15.57;3.70;;;7.60;99.90;;;;;;5039561;28;20051;-59
2022/02/24 01:38:12;;;;;;;9.80;3.05;;;7.60;99.90;;;;;;5038620;28;20053;-58
2022/02/24 01:40:39;;;;;;;13.80;3.33;;;7.60;99.90;;;;;;5039740;28;20139;-58
2022/02/24 01:43:05;;;;;;;16.20;3.38;;;7.60;99.90;;;;;;5041167;28;20117;-58
2022/02/24 01:45:31;;;;;;;13.35;2.83;;;7.60;99.90;;;;;;5037483;28;20041;-59
2022/02/24 01:47:58;;;;;;;11.60;3.30;;;7.60;99.90;;;;;;5039476;28;20060;-58
2022/02/24 01:50:26;;;;;;;9.55;2.67;;;7.60;99.90;;;;;;5036436;28;20047;-58
2022/02/24 01:52:52;;;;;;;11.15;3.58;;;7.60;99.90;;;;;;5033039;28;20512;-58
2022/02/24 01:55:18;;;;;;;8.52;3.45;;;7.60;99.90;;;;;;5037471;28;20053;-59
2022/02/24 01:57:44;;;;;;;9.52;3.28;;;7.50;99.90;;;;;;5040843;28;20045;-61
2022/02/24 02:00:11;;;;;;;12.90;4.40;;;7.60;99.90;;;;;;5046745;28;20041;-61
2022/02/24 02:02:40;;;;;;;12.52;3.15;;;7.50;99.90;;;;;;5041578;28;20052;-61
2022/02/24 02:05:08;;;;;;;10.05;2.72;;;7.50;99.90;;;;;;5038001;28;20099;-61
2022/02/24 02:07:34;;;;;;;9.70;3.42;;;7.50;99.90;;;;;;5038982;28;20099;-61
2022/02/24 02:10:00;;;;;;;15.63;4.13;;;7.50;99.90;;;;;;5040357;28;20045;-61
2022/02/24 02:12:27;;;;;;;12.50;3.22;;;7.40;99.90;;;;;;5020851;28;20055;-61
2022/02/24 02:14:53;;;;;;;18.23;3.85;;;7.40;99.90;;;;;;5032385;28;20650;-61
2022/02/24 02:17:20;;;;;;;8.43;3.63;;;7.50;99.90;;;;;;5045724;28;20124;-61
2022/02/24 02:19:46;;;;;;;13.70;3.50;;;7.50;99.90;;;;;;5042798;28;20057;-61
2022/02/24 02:22:12;;;;;;;11.50;3.08;;;7.50;99.90;;;;;;5044828;28;20049;-61
2022/02/24 02:24:38;;;;;;;9.75;3.38;;;7.50;99.90;;;;;;5039391;28;20053;-61
2022/02/24 02:27:05;;;;;;;11.10;2.83;;;7.50;99.90;;;;;;5044965;28;20088;-61
2022/02/24 02:29:31;;;;;;;9.05;3.20;;;7.40;99.90;;;;;;5045029;28;20040;-61
2022/02/24 02:31:57;;;;;;;10.65;3.47;;;7.40;99.90;;;;;;5045240;28;20433;-61
2022/02/24 02:34:23;;;;;;;11.88;3.13;;;7.50;99.90;;;;;;5055028;28;20401;-61
2022/02/24 02:36:49;;;;;;;13.45;3.33;;;7.50;99.90;;;;;;5045385;28;20048;-61
2022/02/24 02:39:16;;;;;;;11.05;3.30;;;7.50;99.90;;;;;;5027396;28;20114;-61
2022/02/24 02:41:45;;;;;;;13.48;3.33;;;7.50;99.90;;;;;;5041218;28;20076;-61
2022/02/24 02:44:12;;;;;;;11.85;3.58;;;7.50;99.90;;;;;;5043652;28;20114;-61
2022/02/24 02:46:38;;;;;;;11.25;2.92;;;7.40;99.90;;;;;;5043850;28;20033;-61
2022/02/24 02:49:04;;;;;;;12.85;3.42;;;7.40;99.90;;;;;;5043894;28;20055;-61
2022/02/24 02:51:31;;;;;;;14.43;4.00;;;7.40;99.90;;;;;;5044030;28;20056;-62
2022/02/24 02:53:57;;;;;;;12.35;3.47;;;7.40;99.90;;;;;;5026899;28;20087;-62
2022/02/24 02:56:24;;;;;;;10.68;2.95;;;7.40;99.90;;;;;;5042445;28;20114;-61
2022/02/24 02:58:50;;;;;;;10.52;2.90;;;7.40;99.90;;;;;;5042487;28;20080;-62
2022/02/24 03:01:17;;;;;;;10.07;3.10;;;7.40;99.90;;;;;;5042126;28;20045;-62
2022/02/24 03:03:43;;;;;;;12.15;3.53;;;7.40;99.90;;;;;;5009962;28;20428;-61
2022/02/24 03:06:10;;;;;;;11.68;3.03;;;7.30;99.90;;;;;;5044723;28;20482;-61
2022/02/24 03:08:36;;;;;;;11.65;3.15;;;7.40;99.90;;;;;;5044005;28;20044;-61
2022/02/24 03:11:02;;;;;;;10.38;2.67;;;7.40;99.90;;;;;;5025516;28;20573;-61
2022/02/24 03:13:28;;;;;;;11.05;2.85;;;7.40;99.90;;;;;;5043237;28;20902;-61
2022/02/24 03:15:54;;;;;;;15.93;2.85;;;7.40;99.90;;;;;;5045332;28;20056;-61
2022/02/24 03:18:21;;;;;;;11.85;3.10;;;7.40;99.90;;;;;;5043027;28;20052;-61
2022/02/24 03:20:47;;;;;;;10.73;3.33;;;7.40;99.90;;;;;;5027354;28;20417;-61
2022/02/24 03:23:14;;;;;;;14.75;2.85;;;7.30;99.90;;;;;;5042145;28;20049;-61
2022/02/24 03:25:40;;;;;;;17.23;3.13;;;7.30;99.90;;;;;;5044184;28;20653;-61
2022/02/24 03:28:06;;;;;;;12.73;2.50;;;7.30;99.90;;;;;;5043415;28;20132;-62
2022/02/24 03:30:34;;;;;;;13.63;3.22;;;7.30;99.90;;;;;;5042183;28;20092;-61
2022/02/24 03:33:02;;;;;;;16.48;3.33;;;7.30;99.90;;;;;;5040477;28;20041;-61
2022/02/24 03:35:29;;;;;;;13.55;2.67;;;7.30;99.90;;;;;;5044227;28;20051;-61
2022/02/24 03:37:55;;;;;;;11.75;2.85;;;7.40;99.90;;;;;;5043290;28;20110;-61
2022/02/24 03:40:22;;;;;;;10.30;3.20;;;7.30;99.90;;;;;;5041871;28;20078;-61
2022/02/24 03:42:51;;;;;;;11.65;3.55;;;7.30;99.90;;;;;;5043505;28;20044;-62
2022/02/24 03:45:17;;;;;;;11.80;2.80;;;7.30;99.90;;;;;;5029157;28;20049;-61
2022/02/24 03:47:43;;;;;;;12.90;3.10;;;7.30;99.90;;;;;;5042362;28;20410;-61
2022/02/24 03:50:13;;;;;;;13.10;3.45;;;7.30;99.90;;;;;;5044667;28;20443;-61
2022/02/24 03:52:41;;;;;;;15.38;3.45;;;7.30;99.90;;;;;;5025449;28;20055;-61
2022/02/24 03:55:08;;;;;;;10.80;2.88;;;7.30;99.90;;;;;;5042633;28;20072;-61
2022/02/24 03:57:35;;;;;;;19.85;4.18;;;7.30;99.90;;;;;;5040978;28;20735;-61
2022/02/24 04:00:02;;;;;;;12.13;2.90;;;7.30;99.90;;;;;;5042852;28;20450;-61
2022/02/24 04:02:39;;;;;;;12.05;3.08;;;7.30;99.90;;;;;;5043545;28;20148;-61
2022/02/24 04:05:06;;;;;;;10.07;2.88;;;7.30;99.90;;;;;;5045156;28;20465;-61
2022/02/24 04:07:32;;;;;;;15.27;3.25;;;7.30;99.90;;;;;;5040388;28;20393;-59
2022/02/24 04:09:59;;;;;;;9.63;2.55;;;7.30;99.90;;;;;;5043010;28;20107;-58
2022/02/24 04:12:25;;;;;;;15.82;3.33;;;7.30;99.90;;;;;;5025099;28;20550;-58
2022/02/24 04:14:51;;;;;;;12.88;3.72;;;7.30;99.90;;;;;;5045834;28;20045;-58
2022/02/24 04:17:17;;;;;;;13.43;3.55;;;7.30;99.90;;;;;;5024677;28;20565;-58
2022/02/24 04:19:43;;;;;;;14.07;3.00;;;7.30;99.90;;;;;;5041388;28;20052;-58
2022/02/24 04:22:09;;;;;;;12.93;3.08;;;7.30;99.90;;;;;;5025030;28;20053;-58
2022/02/24 04:24:36;;;;;;;12.63;3.15;;;7.30;99.90;;;;;;5043063;28;20045;-59
2022/02/24 04:27:02;;;;;;;8.95;2.92;;;7.30;99.90;;;;;;5041738;28;20045;-58
2022/02/24 04:29:28;;;;;;;12.93;3.17;;;7.30;99.90;;;;;;5040242;28;20045;-58
2022/02/24 04:31:54;;;;;;;11.80;3.30;;;7.30;99.90;;;;;;5043229;28;20048;-58
2022/02/24 04:34:21;;;;;;;12.82;3.40;;;7.30;99.90;;;;;;5014593;28;20049;-58
2022/02/24 04:36:47;;;;;;;14.63;3.13;;;7.30;99.90;;;;;;5007417;28;20147;-58
2022/02/24 04:39:13;;;;;;;11.32;3.88;;;7.20;99.90;;;;;;4980925;28;20396;-58
2022/02/24 04:41:39;;;;;;;14.90;3.80;;;7.20;99.90;;;;;;5042142;28;20052;-58
2022/02/24 04:44:05;;;;;;;12.27;4.00;;;7.20;99.90;;;;;;5040827;28;20075;-59
2022/02/24 04:46:31;;;;;;;15.40;4.00;;;7.20;99.90;;;;;;5042607;28;20044;-58
2022/02/24 04:48:59;;;;;;;11.85;3.38;;;7.20;99.90;;;;;;5041835;28;20057;-58
2022/02/24 04:51:25;;;;;;;11.73;4.78;;;7.20;99.90;;;;;;5041821;28;20492;-58
2022/02/24 04:53:51;;;;;;;13.80;4.13;;;7.20;99.90;;;;;;5042180;28;20059;-58
2022/02/24 04:56:17;;;;;;;11.32;3.72;;;7.20;99.90;;;;;;5041583;28;20460;-58
2022/02/24 04:58:43;;;;;;;13.63;4.03;;;7.20;99.90;;;;;;5040274;28;20408;-59
2022/02/24 05:01:09;;;;;;;15.10;3.63;;;7.20;99.90;;;;;;5040899;28;20225;-59
2022/02/24 05:03:35;;;;;;;14.98;3.85;;;7.30;99.90;;;;;;5042020;28;20033;-58
2022/02/24 05:06:01;;;;;;;10.18;3.65;;;7.30;99.90;;;;;;5050064;28;20507;-58
2022/02/24 05:08:27;;;;;;;14.38;4.28;;;7.30;99.90;;;;;;5041401;28;20037;-58
2022/02/24 05:10:54;;;;;;;11.65;3.33;;;7.20;99.90;;;;;;5022211;28;20052;-58
2022/02/24 05:13:20;;;;;;;16.33;4.35;;;7.20;99.90;;;;;;5033917;28;20057;-58
2022/02/24 05:15:47;;;;;;;17.27;4.07;;;7.20;99.90;;;;;;5024754;28;20048;-58
2022/02/24 05:18:14;;;;;;;15.68;4.03;;;7.20;99.90;;;;;;5042539;28;20371;-59
2022/02/24 05:20:40;;;;;;;13.65;4.20;;;7.20;99.90;;;;;;5042321;28;20049;-58
2022/02/24 05:23:06;;;;;;;12.15;4.30;;;7.20;99.90;;;;;;5042647;28;20053;-59
2022/02/24 05:25:36;;;;;;;14.18;4.28;;;7.20;99.90;;;;;;5041190;28;20040;-59
2022/02/24 05:28:09;;;;;;;17.40;4.45;;;7.20;99.90;;;;;;5040201;28;20135;-58
2022/02/24 05:30:36;;;;;;;14.35;5.22;;;7.20;99.90;;;;;;5041615;28;20047;-58
2022/02/24 05:33:03;;;;;;;12.38;3.60;;;7.30;99.90;;;;;;5042100;28;20055;-59
2022/02/24 05:35:30;;;;;;;10.90;3.70;;;7.20;99.90;;;;;;5022492;28;20404;-59
2022/02/24 05:37:56;;;;;;;15.20;4.13;;;7.20;99.90;;;;;;5038215;28;20045;-59
2022/02/24 05:40:23;;;;;;;13.20;4.32;;;7.20;99.90;;;;;;5040145;28;20630;-59
2022/02/24 05:42:49;;;;;;;10.90;3.83;;;7.20;99.90;;;;;;5036778;28;20041;-62
2022/02/24 05:45:15;;;;;;;13.82;4.03;;;7.20;99.90;;;;;;5034038;28;20049;-61
2022/02/24 05:47:41;;;;;;;13.70;4.22;;;7.20;99.90;;;;;;5034682;28;20045;-58
2022/02/24 05:50:08;;;;;;;14.48;4.03;;;7.20;99.90;;;;;;5044194;28;20405;-58
2022/02/24 05:52:35;;;;;;;12.88;4.10;;;7.20;99.90;;;;;;5032384;28;20057;-59
2022/02/24 05:55:02;;;;;;;13.23;3.47;;;7.20;99.90;;;;;;5046498;28;20052;-58
2022/02/24 05:57:29;;;;;;;10.82;4.18;;;7.30;99.90;;;;;;5049179;28;20255;-58
2022/02/24 05:59:55;;;;;;;12.13;3.72;;;7.30;99.90;;;;;;5045059;28;20553;-58
2022/02/24 06:02:21;;;;;;;11.45;4.22;;;7.20;99.90;;;;;;5021934;28;20053;-58
2022/02/24 06:04:47;;;;;;;12.60;3.83;;;7.20;99.90;;;;;;5047330;28;20408;-58
2022/02/24 06:07:13;;;;;;;11.98;3.78;;;7.20;99.90;;;;;;5031211;28;20093;-58
2022/02/24 06:09:39;;;;;;;14.77;4.00;;;7.20;99.90;;;;;;5047522;28;20051;-58
2022/02/24 06:12:06;;;;;;;12.07;3.88;;;7.20;99.90;;;;;;5049260;28;20060;-59
2022/02/24 06:14:32;;;;;;;13.27;3.85;;;7.20;99.90;;;;;;5031111;28;20155;-59
2022/02/24 06:16:59;;;;;;;11.90;3.20;;;7.10;99.90;;;;;;5040672;28;20443;-58
2022/02/24 06:19:25;;;;;;;10.00;3.75;;;7.10;99.90;;;;;;5041301;28;20570;-58
2022/02/24 06:21:52;;;;;;;10.00;3.55;;;7.10;99.90;;;;;;5041125;28;20144;-58
2022/02/24 06:24:19;;;;;;;11.27;3.78;;;7.10;99.90;;;;;;5046777;28;20127;-58
2022/02/24 06:26:45;;;;;;;12.55;3.53;;;7.10;99.90;;;;;;5045185;28;20079;-58
2022/02/24 06:29:11;;;;;;;12.95;3.55;;;7.10;99.90;;;;;;5043362;28;20049;-61
2022/02/24 06:31:37;;;;;;;13.18;3.80;;;7.10;99.90;;;;;;5047415;28;20423;-58
2022/02/24 06:34:04;;;;;;;12.90;4.40;;;7.10;99.90;;;;;;5042653;28;20076;-59
2022/02/24 06:36:30;;;;;;;18.35;4.18;;;7.10;99.90;;;;;;5043344;28;20167;-60
2022/02/24 06:38:57;;;;;;;9.38;3.50;;;7.20;99.90;;;;;;5042692;28;20052;-57
2022/02/24 06:41:25;;;;;;;13.73;4.05;;;7.30;99.90;;;;;;5041876;28;20044;-59
2022/02/24 06:43:51;;;;;;;12.23;3.65;;;7.30;99.90;;;;;;5045746;28;20451;-58
2022/02/24 06:46:18;;;;;;;12.70;3.85;;;7.30;99.90;;;;;;5043545;28;20506;-57
2022/02/24 06:48:45;;;;;;;9.43;3.88;;;7.20;99.90;;;;;;5025907;28;21076;-57
2022/02/24 06:51:12;;;;;;;12.98;4.32;;;7.20;99.90;;;;;;5042356;28;20049;-57
2022/02/24 06:53:38;;;;;;;10.77;3.72;;;7.20;99.90;;;;;;5042993;28;20040;-57
2022/02/24 06:56:04;;;;;;;9.88;3.03;;;7.20;99.90;;;;;;5043344;28;20041;-60
2022/02/24 06:58:31;;;;;;;10.95;4.00;;;7.20;99.90;;;;;;5025997;28;20045;-60
2022/02/24 07:00:58;;;;;;;14.10;3.45;;;7.20;99.90;;;;;;5043646;28;20396;-60
2022/02/24 07:03:25;;;;;;;13.88;4.00;;;7.30;99.90;;;;;;5055025;28;20089;-62
2022/02/24 07:05:51;;;;;;;11.68;3.55;;;7.20;99.90;;;;;;5040647;28;20455;-60
2022/02/24 07:08:17;;;;;;;12.13;3.58;;;7.20;99.90;;;;;;5045505;28;20086;-60
2022/02/24 07:10:43;;;;;;;10.27;3.42;;;7.20;99.90;;;;;;5044090;28;20075;-58
2022/02/24 07:13:09;;;;;;;12.75;4.63;;;7.30;99.90;;;;;;5042964;28;20092;-57
2022/02/24 07:15:36;;;;;;;11.00;3.65;;;7.30;99.90;;;;;;5042998;28;20133;-60
2022/02/24 07:18:02;;;;;;;12.27;3.60;;;7.30;99.90;;;;;;5045588;28;20183;-57
2022/02/24 07:20:28;;;;;;;12.45;3.50;;;7.30;99.90;;;;;;5043500;28;20400;-60
2022/02/24 07:22:54;;;;;;;11.02;4.25;;;7.30;99.90;;;;;;5044752;28;20053;-57
2022/02/24 07:25:20;;;;;;;9.23;3.53;;;7.30;99.90;;;;;;5042236;28;20049;-57
2022/02/24 07:27:46;;;;;;;10.88;3.53;;;7.40;99.90;;;;;;5043218;28;20045;-60
2022/02/24 07:30:13;;;;;;;12.85;4.10;;;7.40;99.90;;;;;;5039884;28;20078;-60
2022/02/24 07:32:40;;;;;;;13.80;4.25;;;7.40;99.90;;;;;;5043057;28;20971;-60
2022/02/24 07:35:07;;;;;;;11.00;4.22;;;7.50;99.90;;;;;;5041974;28;20082;-60
2022/02/24 07:37:41;;;;;;;13.85;4.18;;;7.50;99.90;;;;;;5036245;28;20142;-57
2022/02/24 07:40:19;;;;;;;11.52;4.28;;;7.50;99.90;;;;;;4993024;28;20040;-60
2022/02/24 07:42:45;;;;;;;12.57;4.13;;;7.50;99.90;;;;;;5039318;28;20492;-60
2022/02/24 07:45:11;;;;;;;10.52;3.75;;;7.60;99.90;;;;;;5036383;28;20486;-60
2022/02/24 07:47:37;;;;;;;16.45;4.53;;;7.60;99.90;;;;;;5020768;28;20620;-60
2022/02/24 07:50:05;;;;;;;7.80;3.58;;;7.60;99.90;;;;;;5017951;28;20064;-57
2022/02/24 07:52:31;;;;;;;15.57;5.15;;;7.60;99.90;;;;;;5038998;28;20383;-58
2022/02/24 07:54:57;;;;;;;10.68;4.40;;;7.70;99.90;;;;;;5024418;28;20053;-61
2022/02/24 07:57:23;;;;;;;13.02;4.90;;;7.70;99.90;;;;;;5038094;28;20049;-62
2022/02/24 07:59:50;;;;;;;10.30;4.20;;;7.70;99.90;;;;;;5035809;28;20114;-57
2022/02/24 08:02:16;;;;;;;16.23;4.43;;;7.80;99.90;;;;;;5038517;28;20373;-57
2022/02/24 08:04:42;;;;;;;12.93;4.40;;;7.80;99.90;;;;;;5032392;28;20049;-58
2022/02/24 08:07:08;;;;;;;12.85;4.30;;;7.80;99.90;;;;;;5021643;28;20063;-60
2022/02/24 08:09:35;;;;;;;14.88;4.43;;;7.90;99.90;;;;;;5038966;28;20049;-61
2022/02/24 08:14:46;;;;;;;16.60;4.47;;;8.30;99.90;;;;;;5020339;28;20055;-60
2022/02/24 08:17:12;;;;;;;8.75;3.90;;;8.50;99.90;;;;;;5041980;28;20067;-60
2022/02/24 08:19:38;;;;;;;9.15;4.60;;;8.70;99.90;;;;;;5039951;28;20056;-61
2022/02/24 08:22:04;;;;;;;13.05;4.55;;;9.10;99.90;;;;;;5039030;28;20081;-60
2022/02/24 08:24:35;;;;;;;12.75;4.05;;;9.40;99.90;;;;;;5040745;28;20443;-62
2022/02/24 08:27:01;;;;;;;11.35;4.18;;;9.40;99.90;;;;;;5039887;28;20060;-62
2022/02/24 08:29:27;;;;;;;15.40;4.88;;;9.40;99.90;;;;;;5041922;28;20681;-62
2022/02/24 08:31:53;;;;;;;11.32;3.90;;;9.70;99.90;;;;;;5037799;28;20474;-62
2022/02/24 08:34:21;;;;;;;14.70;5.05;;;9.90;99.90;;;;;;5039504;28;20045;-59
2022/02/24 08:36:47;;;;;;;11.98;5.18;;;9.70;99.90;;;;;;5039738;28;20041;-60
2022/02/24 08:39:14;;;;;;;11.23;4.38;;;9.80;99.90;;;;;;5034892;28;20478;-62
2022/02/24 08:41:41;;;;;;;16.90;4.40;;;9.80;99.90;;;;;;5040228;28;20053;-59
2022/02/24 08:44:07;;;;;;;12.05;4.43;;;9.80;99.90;;;;;;5021960;28;20049;-61
2022/02/24 08:46:33;;;;;;;11.93;4.40;;;9.90;99.90;;;;;;5040141;28;20821;-61
2022/02/24 08:48:59;;;;;;;13.10;4.40;;;9.70;99.90;;;;;;5039656;28;20060;-60
2022/02/24 08:51:26;;;;;;;10.20;4.35;;;9.60;99.90;;;;;;5036633;28;20151;-61
2022/02/24 08:53:52;;;;;;;14.40;4.13;;;9.60;99.90;;;;;;5022087;28;20045;-61
2022/02/24 08:56:18;;;;;;;14.80;4.57;;;9.70;99.90;;;;;;5037513;28;20167;-61
2022/02/24 08:58:44;;;;;;;12.00;4.22;;;10.00;99.90;;;;;;5036904;28;20586;-62
2022/02/24 09:01:11;;;;;;;11.00;3.95;;;10.30;99.90;;;;;;5039226;28;20051;-62
2022/02/24 09:03:37;;;;;;;14.13;3.88;;;10.40;99.90;;;;;;5022659;28;20590;-58
2022/02/24 09:06:03;;;;;;;10.82;4.80;;;10.40;99.90;;;;;;5037341;28;20053;-59
2022/02/24 09:08:29;;;;;;;15.15;4.63;;;10.10;99.90;;;;;;5037916;28;20360;-59
2022/02/24 09:10:55;;;;;;;13.52;4.28;;;10.00;99.90;;;;;;5040088;28;20044;-58
2022/02/24 09:13:22;;;;;;;17.67;5.53;;;9.90;99.90;;;;;;5004541;28;20110;-58
2022/02/24 09:15:48;;;;;;;11.63;4.20;;;9.90;99.90;;;;;;5049922;28;21281;-58
2022/02/24 09:18:14;;;;;;;13.27;4.07;;;10.20;99.90;;;;;;5034967;28;20049;-61
2022/02/24 09:20:42;;;;;;;12.48;4.32;;;10.30;99.90;;;;;;5034126;28;20049;-62
2022/02/24 09:23:09;;;;;;;11.07;3.90;;;10.20;99.90;;;;;;5035201;28;20152;-62
2022/02/24 09:25:35;;;;;;;12.43;4.30;;;10.00;99.90;;;;;;5035863;28;20450;-62
2022/02/24 09:28:03;;;;;;;13.80;4.10;;;9.70;99.90;;;;;;5038263;28;20045;-62
2022/02/24 09:30:29;;;;;;;12.05;3.88;;;9.50;99.90;;;;;;5040064;28;20055;-62
2022/02/24 09:32:56;;;;;;;14.20;4.15;;;9.50;99.90;;;;;;5039979;28;20557;-62
2022/02/24 09:35:23;;;;;;;15.38;4.35;;;9.40;99.90;;;;;;5039366;28;20041;-62
2022/02/24 09:37:49;;;;;;;16.75;4.25;;;9.30;99.90;;;;;;5039097;28;20138;-62
2022/02/24 09:40:15;;;;;;;11.80;5.00;;;9.40;99.90;;;;;;5052215;28;20416;-59
2022/02/24 09:42:42;;;;;;;15.15;5.13;;;9.30;99.90;;;;;;5021374;28;20127;-57
2022/02/24 09:45:09;;;;;;;12.45;4.25;;;9.40;99.90;;;;;;5037665;28;20071;-59
2022/02/24 09:47:40;;;;;;;8.23;3.15;;;9.50;99.90;;;;;;5023363;28;20435;-59
2022/02/24 09:50:07;;;;;;;11.57;4.45;;;9.60;99.90;;;;;;5003509;28;20049;-59
2022/02/24 09:52:34;;;;;;;11.57;4.55;;;9.60;99.90;;;;;;5004367;28;20407;-60
2022/02/24 09:55:00;;;;;;;9.98;4.07;;;9.70;99.90;;;;;;5039365;28;20052;-57
2022/02/24 09:57:26;;;;;;;12.05;4.00;;;9.90;99.90;;;;;;5052789;28;20579;-60
2022/02/24 09:59:52;;;;;;;10.80;3.67;;;10.20;99.90;;;;;;5038328;28;20507;-59
2022/02/24 10:02:20;;;;;;;13.02;3.50;;;10.60;99.90;;;;;;5033451;28;20176;-61
2022/02/24 10:05:06;;;;;;;7.07;3.38;;;10.70;99.90;;;;;;5036362;28;20040;-61
2022/02/24 10:07:38;;;;;;;7.93;3.20;;;10.60;99.90;;;;;;5041241;28;20123;-61
2022/02/24 10:10:23;;;;;;;;;;;10.40;99.90;;;;;;5037810;28;20435;-60
2022/02/24 10:13:02;;;;;;;12.55;3.90;;;10.20;99.90;;;;;;5040942;28;20421;-60
2022/02/24 10:15:28;;;;;;;9.63;3.25;;;9.90;99.90;;;;;;5035056;28;20049;-60
2022/02/24 10:18:11;;;;;;;10.65;3.00;;;9.80;99.90;;;;;;5038920;28;20530;-61
2022/02/24 10:20:44;;;;;;;8.88;3.22;;;9.70;99.90;;;;;;5040167;28;20374;-60
2022/02/24 10:23:12;;;;;;;11.10;3.13;;;10.20;99.90;;;;;;5051902;28;20568;-60
2022/02/24 10:25:50;;;;;;;9.50;3.25;;;10.70;99.90;;;;;;5039033;28;20049;-61
2022/02/24 10:28:35;;;;;;;12.30;3.40;;;10.70;99.90;;;;;;5040889;28;20904;-61
2022/02/24 10:31:38;;;;;;;9.15;3.05;;;10.60;99.90;;;;;;5036076;28;20519;-61
2022/02/24 10:34:10;;;;;;;9.20;2.75;;;10.80;99.90;;;;;;5032044;28;20099;-60
2022/02/24 10:36:37;;;;;;;;;;;10.80;99.90;;;;;;5033141;28;20506;-61
2022/02/24 10:39:05;;;;;;;8.20;2.83;;;10.80;99.90;;;;;;5041265;28;20296;-62
2022/02/24 10:41:38;;;;;;;9.23;2.90;;;10.70;99.90;;;;;;5030996;28;20040;-62
2022/02/24 10:44:24;;;;;;;10.65;3.08;;;10.90;99.90;;;;;;5043947;28;20131;-61
2022/02/24 10:47:11;;;;;;;9.00;3.10;;;11.00;99.90;;;;;;5027826;28;20595;-61
2022/02/24 10:49:40;;;;;;;8.43;3.00;;;11.60;99.90;;;;;;5040932;28;20069;-61
2022/02/24 10:52:11;;;;;;;9.25;2.83;;;12.00;99.90;;;;;;5043840;28;20538;-62
2022/02/24 10:54:37;;;;;;;8.15;2.70;;;12.50;99.90;;;;;;5044131;28;20082;-62
2022/02/24 10:57:27;;;;;;;13.13;3.30;;;12.10;99.90;;;;;;5042993;28;20051;-60
2022/02/24 10:59:57;;;;;;;8.85;2.80;;;12.60;99.90;;;;;;5041190;28;20147;-57
2022/02/24 11:02:28;;;;;;;8.50;2.47;;;13.10;99.90;;;;;;5043108;28;20483;-58
2022/02/24 11:04:55;;;;;;;10.98;2.80;;;13.20;99.90;;;;;;5040409;28;20049;-58
2022/02/24 11:07:23;;;;;;;9.25;2.90;;;13.00;99.90;;;;;;5039711;28;20083;-58
2022/02/24 11:09:49;;;;;;;7.93;2.67;;;13.50;99.90;;;;;;5042113;28;20068;-57
2022/02/24 11:12:17;;;;;;;7.53;2.70;;;13.80;99.90;;;;;;5041993;28;20598;-58
2022/02/24 11:14:47;;;;;;;9.20;2.78;;;13.80;99.90;;;;;;5025655;28;20139;-58
2022/02/24 11:17:14;;;;;;;9.40;2.80;;;13.50;99.90;;;;;;5041534;28;20044;-59
2022/02/24 11:19:45;;;;;;;7.80;2.80;;;13.20;99.90;;;;;;5041457;28;20475;-58
2022/02/24 11:22:11;;;;;;;9.80;3.20;;;12.80;99.90;;;;;;5008897;28;20134;-58
2022/02/24 11:24:38;;;;;;;6.70;2.47;;;13.10;99.90;;;;;;5039822;28;20135;-58
2022/02/24 11:27:23;;;;;;;11.73;2.83;;;13.30;99.90;;;;;;5038510;28;20040;-58
2022/02/24 11:29:56;;;;;;;8.27;2.78;;;13.10;99.90;;;;;;5039958;28;20049;-58
2022/02/24 11:32:23;;;;;;;10.80;2.58;;;13.10;99.90;;;;;;5023542;28;20045;-57
2022/02/24 11:35:06;;;;;;;9.70;3.00;;;13.10;99.90;;;;;;5039441;28;20045;-58
2022/02/24 11:37:43;;;;;;;7.43;2.80;;;12.90;99.90;;;;;;5042818;28;20092;-58
2022/02/24 11:40:22;;;;;;;9.93;2.83;;;12.40;99.90;;;;;;5038709;28;20388;-58
2022/02/24 11:43:10;;;;;;;10.93;3.22;;;12.50;99.90;;;;;;5040544;28;20507;-58
2022/02/24 11:45:57;;;;;;;11.35;3.47;;;12.30;99.90;;;;;;5040216;28;20033;-58
2022/02/24 11:48:31;;;;;;;10.35;3.28;;;11.80;99.90;;;;;;5021826;28;20132;-59
2022/02/24 11:51:00;;;;;;;8.63;2.83;;;11.50;99.90;;;;;;5043185;28;20347;-59
2022/02/24 11:53:26;;;;;;;9.05;3.05;;;11.30;99.90;;;;;;5022598;28;20399;-61
2022/02/24 11:55:59;;;;;;;9.50;2.72;;;11.00;99.90;;;;;;5055659;28;20048;-61
2022/02/24 11:58:52;;;;;;;8.55;3.08;;;10.80;99.90;;;;;;5041316;28;20148;-61
2022/02/24 12:01:41;;;;;;;8.80;2.83;;;10.70;99.90;;;;;;5042704;28;20040;-60
2022/02/24 12:04:18;;;;;;;10.52;2.35;;;10.60;99.90;;;;;;5043176;28;20505;-60
2022/02/24 12:07:11;;;;;;;8.23;2.55;;;10.70;99.90;;;;;;5055659;28;20376;-60
2022/02/24 12:09:38;;;;;;;8.25;2.53;;;11.00;99.90;;;;;;5021972;28;20066;-60
2022/02/24 12:12:23;;;;;;;10.82;2.17;;;11.40;99.90;;;;;;5023238;28;20049;-60
2022/02/24 12:14:51;;;;;;;6.57;2.42;;;11.40;99.90;;;;;;5041357;28;20371;-60
2022/02/24 12:17:19;;;;;;;10.25;3.08;;;11.30;99.90;;;;;;5042713;28;20436;-60
2022/02/24 12:20:08;;;;;;;9.73;2.60;;;11.20;99.90;;;;;;5043042;28;20049;-60
2022/02/24 12:22:39;;;;;;;9.73;2.70;;;11.10;99.90;;;;;;5038373;28;20052;-60
2022/02/24 12:25:10;;;;;;;8.07;1.97;;;11.00;99.90;;;;;;5038493;28;20240;-61
2022/02/24 12:27:38;;;;;;;9.43;2.60;;;11.00;99.90;;;;;;5039899;28;20051;-61
2022/02/24 12:30:17;;;;;;;10.70;3.45;;;10.90;99.90;;;;;;5034463;28;20526;-61
2022/02/24 12:32:47;;;;;;;6.07;2.53;;;10.70;99.90;;;;;;5022593;28;20114;-60
2022/02/24 12:35:19;;;;;;;6.88;2.67;;;10.50;99.90;;;;;;5040606;28;20051;-62
2022/02/24 12:37:46;;;;;;;;;;;10.50;99.90;;;;;;5039366;28;20130;-62
2022/02/24 12:40:24;;;;;;;9.90;2.58;;;10.40;99.90;;;;;;5038995;28;20375;-62
2022/02/24 12:42:51;;;;;;;9.20;2.80;;;10.50;99.90;;;;;;5040331;28;20045;-62
2022/02/24 12:45:18;;;;;;;6.40;2.38;;;10.50;99.90;;;;;;5053691;28;20040;-62
2022/02/24 12:47:49;;;;;;;10.55;2.63;;;10.60;99.90;;;;;;5023054;28;20048;-62
2022/02/24 12:50:26;;;;;;;9.18;2.70;;;10.60;99.90;;;;;;5040489;28;20049;-62
2022/02/24 12:53:13;;;;;;;10.68;2.83;;;10.50;99.90;;;;;;5050707;28;20131;-62
2022/02/24 12:55:40;;;;;;;9.02;2.63;;;10.50;99.90;;;;;;5038259;28;20099;-59